sensor_id;sensor_type;location;lat;lon;timestamp;P1;durP1;ratioP1;P2;durP2;ratioP2
9836;SDS011;4957;51.412;6.724;2024-01-30T00:02:23;13.53;;;8.00;;
9836;SDS011;4957;51.412;6.724;2024-01-30T00:04:49;12.33;;;7.77;;
9836;SDS011;4957;51.412;6.724;2024-01-30T00:07:15;13.33;;;7.70;;
9836;SDS011;4957;51.412;6.724;2024-01-30T00:09:43;10.97;;;7.63;;
9836;SDS011;4957;51.412;6.724;2024-01-30T00:12:12;9.20;;;7.30;;
9836;SDS011;4957;51.412;6.724;2024-01-30T00:14:38;14.47;;;8.20;;
9836;SDS011;4957;51.412;6.724;2024-01-30T00:17:09;14.80;;;7.93;;
9836;SDS011;4957;51.412;6.724;2024-01-30T00:19:35;18.37;;;8.90;;
9836;SDS011;4957;51.412;6.724;2024-01-30T00:22:00;11.77;;;8.00;;
9836;SDS011;4957;51.412;6.724;2024-01-30T00:24:26;13.57;;;7.87;;
9836;SDS011;4957;51.412;6.724;2024-01-30T00:26:52;13.70;;;8.20;;
9836;SDS011;4957;51.412;6.724;2024-01-30T00:29:17;10.40;;;7.97;;
9836;SDS011;4957;51.412;6.724;2024-01-30T00:31:45;16.90;;;8.60;;
9836;SDS011;4957;51.412;6.724;2024-01-30T00:34:11;16.50;;;8.47;;
9836;SDS011;4957;51.412;6.724;2024-01-30T00:36:37;11.47;;;7.33;;
9836;SDS011;4957;51.412;6.724;2024-01-30T00:39:02;12.70;;;7.87;;
9836;SDS011;4957;51.412;6.724;2024-01-30T00:41:31;13.80;;;8.27;;
9836;SDS011;4957;51.412;6.724;2024-01-30T00:43:57;15.77;;;9.03;;
9836;SDS011;4957;51.412;6.724;2024-01-30T00:46:23;13.80;;;8.17;;
9836;SDS011;4957;51.412;6.724;2024-01-30T00:48:49;12.40;;;8.30;;
9836;SDS011;4957;51.412;6.724;2024-01-30T00:51:14;14.87;;;7.97;;
9836;SDS011;4957;51.412;6.724;2024-01-30T00:53:40;14.10;;;8.03;;
9836;SDS011;4957;51.412;6.724;2024-01-30T00:56:09;14.87;;;8.27;;
9836;SDS011;4957;51.412;6.724;2024-01-30T00:58:35;13.93;;;8.07;;
9836;SDS011;4957;51.412;6.724;2024-01-30T01:01:01;13.67;;;8.37;;
9836;SDS011;4957;51.412;6.724;2024-01-30T01:03:27;13.07;;;8.13;;
9836;SDS011;4957;51.412;6.724;2024-01-30T01:05:56;17.40;;;8.80;;
9836;SDS011;4957;51.412;6.724;2024-01-30T01:08:21;15.40;;;9.20;;
9836;SDS011;4957;51.412;6.724;2024-01-30T01:10:47;15.40;;;8.33;;
9836;SDS011;4957;51.412;6.724;2024-01-30T01:13:13;11.40;;;8.10;;
9836;SDS011;4957;51.412;6.724;2024-01-30T01:15:47;12.87;;;8.47;;
9836;SDS011;4957;51.412;6.724;2024-01-30T01:18:28;14.70;;;8.43;;
9836;SDS011;4957;51.412;6.724;2024-01-30T01:21:21;9.73;;;7.60;;
9836;SDS011;4957;51.412;6.724;2024-01-30T01:23:48;12.17;;;8.47;;
9836;SDS011;4957;51.412;6.724;2024-01-30T01:26:14;17.27;;;9.17;;
9836;SDS011;4957;51.412;6.724;2024-01-30T01:28:44;12.30;;;9.00;;
9836;SDS011;4957;51.412;6.724;2024-01-30T01:31:15;13.00;;;8.37;;
9836;SDS011;4957;51.412;6.724;2024-01-30T01:33:51;13.37;;;8.67;;
9836;SDS011;4957;51.412;6.724;2024-01-30T01:36:34;23.63;;;9.30;;
9836;SDS011;4957;51.412;6.724;2024-01-30T01:39:00;16.27;;;9.33;;
9836;SDS011;4957;51.412;6.724;2024-01-30T01:41:29;13.67;;;8.93;;
9836;SDS011;4957;51.412;6.724;2024-01-30T01:44:05;15.33;;;8.67;;
9836;SDS011;4957;51.412;6.724;2024-01-30T01:46:32;13.63;;;8.47;;
9836;SDS011;4957;51.412;6.724;2024-01-30T01:49:02;15.10;;;8.73;;
9836;SDS011;4957;51.412;6.724;2024-01-30T01:51:29;13.60;;;8.50;;
9836;SDS011;4957;51.412;6.724;2024-01-30T01:53:58;16.10;;;8.60;;
9836;SDS011;4957;51.412;6.724;2024-01-30T01:56:27;20.20;;;9.60;;
9836;SDS011;4957;51.412;6.724;2024-01-30T01:59:07;13.23;;;9.47;;
9836;SDS011;4957;51.412;6.724;2024-01-30T02:01:33;14.60;;;8.57;;
9836;SDS011;4957;51.412;6.724;2024-01-30T02:04:01;12.23;;;8.43;;
9836;SDS011;4957;51.412;6.724;2024-01-30T02:06:35;14.37;;;8.37;;
9836;SDS011;4957;51.412;6.724;2024-01-30T02:09:37;15.90;;;9.13;;
9836;SDS011;4957;51.412;6.724;2024-01-30T02:11:59;15.13;;;8.50;;
9836;SDS011;4957;51.412;6.724;2024-01-30T02:14:25;13.20;;;8.70;;
9836;SDS011;4957;51.412;6.724;2024-01-30T02:16:55;11.20;;;7.83;;
9836;SDS011;4957;51.412;6.724;2024-01-30T02:19:23;14.83;;;8.83;;
9836;SDS011;4957;51.412;6.724;2024-01-30T02:21:54;11.63;;;7.70;;
9836;SDS011;4957;51.412;6.724;2024-01-30T02:24:26;16.03;;;9.03;;
9836;SDS011;4957;51.412;6.724;2024-01-30T02:26:51;13.50;;;8.47;;
9836;SDS011;4957;51.412;6.724;2024-01-30T02:29:17;14.20;;;8.00;;
9836;SDS011;4957;51.412;6.724;2024-01-30T02:31:43;13.53;;;8.83;;
9836;SDS011;4957;51.412;6.724;2024-01-30T02:34:10;13.07;;;8.07;;
9836;SDS011;4957;51.412;6.724;2024-01-30T02:36:36;13.97;;;8.00;;
9836;SDS011;4957;51.412;6.724;2024-01-30T02:39:02;14.70;;;9.17;;
9836;SDS011;4957;51.412;6.724;2024-01-30T02:41:28;14.43;;;8.60;;
9836;SDS011;4957;51.412;6.724;2024-01-30T02:43:54;11.77;;;8.23;;
9836;SDS011;4957;51.412;6.724;2024-01-30T02:46:20;14.03;;;8.60;;
9836;SDS011;4957;51.412;6.724;2024-01-30T02:48:45;11.60;;;7.90;;
9836;SDS011;4957;51.412;6.724;2024-01-30T02:51:11;11.83;;;7.87;;
9836;SDS011;4957;51.412;6.724;2024-01-30T02:53:37;10.27;;;7.20;;
9836;SDS011;4957;51.412;6.724;2024-01-30T02:56:02;12.23;;;7.70;;
9836;SDS011;4957;51.412;6.724;2024-01-30T02:58:28;15.27;;;9.23;;
9836;SDS011;4957;51.412;6.724;2024-01-30T03:00:56;13.77;;;7.90;;
9836;SDS011;4957;51.412;6.724;2024-01-30T03:03:22;14.87;;;7.77;;
9836;SDS011;4957;51.412;6.724;2024-01-30T03:05:48;15.00;;;9.37;;
9836;SDS011;4957;51.412;6.724;2024-01-30T03:08:16;19.90;;;8.47;;
9836;SDS011;4957;51.412;6.724;2024-01-30T03:10:42;12.53;;;7.83;;
9836;SDS011;4957;51.412;6.724;2024-01-30T03:13:07;11.27;;;7.10;;
9836;SDS011;4957;51.412;6.724;2024-01-30T03:15:33;11.60;;;7.20;;
9836;SDS011;4957;51.412;6.724;2024-01-30T03:17:59;15.27;;;8.00;;
9836;SDS011;4957;51.412;6.724;2024-01-30T03:20:24;14.10;;;7.47;;
9836;SDS011;4957;51.412;6.724;2024-01-30T03:22:50;10.50;;;7.40;;
9836;SDS011;4957;51.412;6.724;2024-01-30T03:25:16;11.63;;;7.33;;
9836;SDS011;4957;51.412;6.724;2024-01-30T03:27:41;10.93;;;7.60;;
9836;SDS011;4957;51.412;6.724;2024-01-30T03:30:07;12.50;;;7.97;;
9836;SDS011;4957;51.412;6.724;2024-01-30T03:32:33;15.40;;;7.17;;
9836;SDS011;4957;51.412;6.724;2024-01-30T03:34:59;11.57;;;7.47;;
9836;SDS011;4957;51.412;6.724;2024-01-30T03:37:25;13.93;;;7.13;;
9836;SDS011;4957;51.412;6.724;2024-01-30T03:39:50;16.50;;;7.70;;
9836;SDS011;4957;51.412;6.724;2024-01-30T03:42:16;11.63;;;7.17;;
9836;SDS011;4957;51.412;6.724;2024-01-30T03:44:42;12.77;;;7.63;;
9836;SDS011;4957;51.412;6.724;2024-01-30T03:47:08;14.83;;;7.30;;
9836;SDS011;4957;51.412;6.724;2024-01-30T03:49:33;12.90;;;7.40;;
9836;SDS011;4957;51.412;6.724;2024-01-30T03:51:59;11.30;;;8.23;;
9836;SDS011;4957;51.412;6.724;2024-01-30T03:54:25;16.57;;;8.23;;
9836;SDS011;4957;51.412;6.724;2024-01-30T03:56:50;14.07;;;7.57;;
9836;SDS011;4957;51.412;6.724;2024-01-30T03:59:16;14.23;;;7.43;;
9836;SDS011;4957;51.412;6.724;2024-01-30T04:01:47;10.47;;;7.00;;
9836;SDS011;4957;51.412;6.724;2024-01-30T04:04:12;12.47;;;7.53;;
9836;SDS011;4957;51.412;6.724;2024-01-30T04:06:38;12.70;;;7.40;;
9836;SDS011;4957;51.412;6.724;2024-01-30T04:09:04;14.63;;;7.93;;
9836;SDS011;4957;51.412;6.724;2024-01-30T04:11:33;14.23;;;7.90;;
9836;SDS011;4957;51.412;6.724;2024-01-30T04:13:58;14.10;;;7.97;;
9836;SDS011;4957;51.412;6.724;2024-01-30T04:16:24;12.80;;;8.30;;
9836;SDS011;4957;51.412;6.724;2024-01-30T04:18:50;12.83;;;7.10;;
9836;SDS011;4957;51.412;6.724;2024-01-30T04:21:16;12.60;;;7.00;;
9836;SDS011;4957;51.412;6.724;2024-01-30T04:23:42;12.97;;;7.73;;
9836;SDS011;4957;51.412;6.724;2024-01-30T04:26:08;13.27;;;8.00;;
9836;SDS011;4957;51.412;6.724;2024-01-30T04:28:33;12.33;;;7.07;;
9836;SDS011;4957;51.412;6.724;2024-01-30T04:30:59;12.30;;;8.03;;
9836;SDS011;4957;51.412;6.724;2024-01-30T04:33:25;13.80;;;8.07;;
9836;SDS011;4957;51.412;6.724;2024-01-30T04:35:51;13.70;;;8.27;;
9836;SDS011;4957;51.412;6.724;2024-01-30T04:38:17;13.53;;;7.83;;
9836;SDS011;4957;51.412;6.724;2024-01-30T04:40:42;13.80;;;7.57;;
9836;SDS011;4957;51.412;6.724;2024-01-30T04:43:08;13.17;;;7.90;;
9836;SDS011;4957;51.412;6.724;2024-01-30T04:45:34;13.17;;;7.63;;
9836;SDS011;4957;51.412;6.724;2024-01-30T04:48:00;14.70;;;7.63;;
9836;SDS011;4957;51.412;6.724;2024-01-30T04:50:25;10.60;;;7.83;;
9836;SDS011;4957;51.412;6.724;2024-01-30T04:52:51;14.43;;;8.57;;
9836;SDS011;4957;51.412;6.724;2024-01-30T04:55:17;14.20;;;8.93;;
9836;SDS011;4957;51.412;6.724;2024-01-30T04:57:43;14.10;;;7.47;;
9836;SDS011;4957;51.412;6.724;2024-01-30T05:00:09;17.47;;;8.70;;
9836;SDS011;4957;51.412;6.724;2024-01-30T05:02:35;15.67;;;8.87;;
9836;SDS011;4957;51.412;6.724;2024-01-30T05:05:01;16.67;;;9.20;;
9836;SDS011;4957;51.412;6.724;2024-01-30T05:07:26;16.87;;;7.97;;
9836;SDS011;4957;51.412;6.724;2024-01-30T05:09:55;13.47;;;8.20;;
9836;SDS011;4957;51.412;6.724;2024-01-30T05:12:21;13.20;;;7.63;;
9836;SDS011;4957;51.412;6.724;2024-01-30T05:14:46;12.73;;;8.83;;
9836;SDS011;4957;51.412;6.724;2024-01-30T05:17:12;12.00;;;8.80;;
9836;SDS011;4957;51.412;6.724;2024-01-30T05:19:38;10.57;;;8.20;;
9836;SDS011;4957;51.412;6.724;2024-01-30T05:22:04;15.57;;;8.57;;
9836;SDS011;4957;51.412;6.724;2024-01-30T05:24:33;16.27;;;9.00;;
9836;SDS011;4957;51.412;6.724;2024-01-30T05:26:58;17.83;;;8.93;;
9836;SDS011;4957;51.412;6.724;2024-01-30T05:29:24;14.37;;;8.63;;
9836;SDS011;4957;51.412;6.724;2024-01-30T05:31:50;15.13;;;8.57;;
9836;SDS011;4957;51.412;6.724;2024-01-30T05:34:16;11.87;;;8.17;;
9836;SDS011;4957;51.412;6.724;2024-01-30T05:36:41;12.73;;;8.40;;
9836;SDS011;4957;51.412;6.724;2024-01-30T05:39:07;12.97;;;8.30;;
9836;SDS011;4957;51.412;6.724;2024-01-30T05:41:33;15.17;;;8.80;;
9836;SDS011;4957;51.412;6.724;2024-01-30T05:43:58;13.23;;;8.30;;
9836;SDS011;4957;51.412;6.724;2024-01-30T05:46:24;12.90;;;8.40;;
9836;SDS011;4957;51.412;6.724;2024-01-30T05:48:50;13.20;;;8.20;;
9836;SDS011;4957;51.412;6.724;2024-01-30T05:51:15;14.23;;;8.00;;
9836;SDS011;4957;51.412;6.724;2024-01-30T05:53:41;11.77;;;7.43;;
9836;SDS011;4957;51.412;6.724;2024-01-30T05:56:07;13.80;;;8.03;;
9836;SDS011;4957;51.412;6.724;2024-01-30T05:58:32;14.53;;;7.77;;
9836;SDS011;4957;51.412;6.724;2024-01-30T06:00:58;14.20;;;7.87;;
9836;SDS011;4957;51.412;6.724;2024-01-30T06:03:24;11.23;;;8.17;;
9836;SDS011;4957;51.412;6.724;2024-01-30T06:05:49;15.33;;;8.97;;
9836;SDS011;4957;51.412;6.724;2024-01-30T06:08:15;15.30;;;8.60;;
9836;SDS011;4957;51.412;6.724;2024-01-30T06:10:41;12.30;;;8.53;;
9836;SDS011;4957;51.412;6.724;2024-01-30T06:13:06;14.80;;;9.00;;
9836;SDS011;4957;51.412;6.724;2024-01-30T06:15:32;14.87;;;8.87;;
9836;SDS011;4957;51.412;6.724;2024-01-30T06:17:58;16.53;;;8.57;;
9836;SDS011;4957;51.412;6.724;2024-01-30T06:20:24;14.07;;;9.03;;
9836;SDS011;4957;51.412;6.724;2024-01-30T06:22:50;12.37;;;8.70;;
9836;SDS011;4957;51.412;6.724;2024-01-30T06:25:15;11.70;;;8.07;;
9836;SDS011;4957;51.412;6.724;2024-01-30T06:27:42;15.83;;;8.37;;
9836;SDS011;4957;51.412;6.724;2024-01-30T06:30:08;14.47;;;8.17;;
9836;SDS011;4957;51.412;6.724;2024-01-30T06:32:35;14.63;;;8.50;;
9836;SDS011;4957;51.412;6.724;2024-01-30T06:35:01;14.90;;;8.77;;
9836;SDS011;4957;51.412;6.724;2024-01-30T06:37:27;13.33;;;8.70;;
9836;SDS011;4957;51.412;6.724;2024-01-30T06:39:52;13.40;;;7.77;;
9836;SDS011;4957;51.412;6.724;2024-01-30T06:42:19;12.70;;;8.73;;
9836;SDS011;4957;51.412;6.724;2024-01-30T06:44:47;11.97;;;7.77;;
9836;SDS011;4957;51.412;6.724;2024-01-30T06:47:13;13.50;;;8.10;;
9836;SDS011;4957;51.412;6.724;2024-01-30T06:49:38;13.53;;;8.97;;
9836;SDS011;4957;51.412;6.724;2024-01-30T06:52:05;13.17;;;8.30;;
9836;SDS011;4957;51.412;6.724;2024-01-30T06:54:32;14.03;;;8.23;;
9836;SDS011;4957;51.412;6.724;2024-01-30T06:56:58;14.17;;;9.37;;
9836;SDS011;4957;51.412;6.724;2024-01-30T06:59:24;13.90;;;8.90;;
9836;SDS011;4957;51.412;6.724;2024-01-30T07:01:50;15.13;;;9.40;;
9836;SDS011;4957;51.412;6.724;2024-01-30T07:04:16;16.40;;;8.90;;
9836;SDS011;4957;51.412;6.724;2024-01-30T07:06:43;13.93;;;7.83;;
9836;SDS011;4957;51.412;6.724;2024-01-30T07:09:09;16.43;;;8.80;;
9836;SDS011;4957;51.412;6.724;2024-01-30T07:11:38;13.63;;;7.67;;
9836;SDS011;4957;51.412;6.724;2024-01-30T07:14:04;11.87;;;8.20;;
9836;SDS011;4957;51.412;6.724;2024-01-30T07:16:30;15.00;;;8.67;;
9836;SDS011;4957;51.412;6.724;2024-01-30T07:18:56;10.33;;;7.53;;
9836;SDS011;4957;51.412;6.724;2024-01-30T07:21:21;18.50;;;8.20;;
9836;SDS011;4957;51.412;6.724;2024-01-30T07:23:52;11.93;;;7.80;;
9836;SDS011;4957;51.412;6.724;2024-01-30T07:26:21;15.47;;;8.60;;
9836;SDS011;4957;51.412;6.724;2024-01-30T07:28:47;12.13;;;8.63;;
9836;SDS011;4957;51.412;6.724;2024-01-30T07:31:13;14.20;;;7.77;;
9836;SDS011;4957;51.412;6.724;2024-01-30T07:33:38;12.57;;;7.97;;
9836;SDS011;4957;51.412;6.724;2024-01-30T07:36:04;16.67;;;8.53;;
9836;SDS011;4957;51.412;6.724;2024-01-30T07:38:33;10.87;;;8.27;;
9836;SDS011;4957;51.412;6.724;2024-01-30T07:40:59;15.30;;;7.63;;
9836;SDS011;4957;51.412;6.724;2024-01-30T07:43:25;16.33;;;8.50;;
9836;SDS011;4957;51.412;6.724;2024-01-30T07:45:51;15.60;;;8.33;;
9836;SDS011;4957;51.412;6.724;2024-01-30T07:48:17;11.37;;;8.17;;
9836;SDS011;4957;51.412;6.724;2024-01-30T07:50:43;13.63;;;8.07;;
9836;SDS011;4957;51.412;6.724;2024-01-30T07:53:08;12.37;;;7.43;;
9836;SDS011;4957;51.412;6.724;2024-01-30T07:55:34;12.23;;;8.03;;
9836;SDS011;4957;51.412;6.724;2024-01-30T07:58:00;12.80;;;7.93;;
9836;SDS011;4957;51.412;6.724;2024-01-30T08:00:25;13.57;;;8.30;;
9836;SDS011;4957;51.412;6.724;2024-01-30T08:02:54;17.57;;;8.23;;
9836;SDS011;4957;51.412;6.724;2024-01-30T08:08:52;16.23;;;8.20;;
9836;SDS011;4957;51.412;6.724;2024-01-30T08:11:21;14.20;;;8.03;;
9836;SDS011;4957;51.412;6.724;2024-01-30T08:13:54;10.07;;;6.97;;
9836;SDS011;4957;51.412;6.724;2024-01-30T08:16:20;13.23;;;8.53;;
9836;SDS011;4957;51.412;6.724;2024-01-30T08:18:45;11.30;;;7.43;;
9836;SDS011;4957;51.412;6.724;2024-01-30T08:21:11;14.87;;;7.80;;
9836;SDS011;4957;51.412;6.724;2024-01-30T08:23:40;13.67;;;8.07;;
9836;SDS011;4957;51.412;6.724;2024-01-30T08:26:07;15.50;;;8.10;;
9836;SDS011;4957;51.412;6.724;2024-01-30T08:28:33;11.80;;;7.87;;
9836;SDS011;4957;51.412;6.724;2024-01-30T08:30:59;16.57;;;8.50;;
9836;SDS011;4957;51.412;6.724;2024-01-30T08:33:25;12.57;;;8.00;;
9836;SDS011;4957;51.412;6.724;2024-01-30T08:35:50;13.37;;;7.93;;
9836;SDS011;4957;51.412;6.724;2024-01-30T08:38:16;13.40;;;7.83;;
9836;SDS011;4957;51.412;6.724;2024-01-30T08:40:42;13.33;;;7.83;;
9836;SDS011;4957;51.412;6.724;2024-01-30T08:43:08;13.17;;;7.57;;
9836;SDS011;4957;51.412;6.724;2024-01-30T08:45:35;15.30;;;7.70;;
9836;SDS011;4957;51.412;6.724;2024-01-30T08:48:01;12.13;;;7.47;;
9836;SDS011;4957;51.412;6.724;2024-01-30T08:50:26;11.13;;;8.13;;
9836;SDS011;4957;51.412;6.724;2024-01-30T08:52:52;11.63;;;7.77;;
9836;SDS011;4957;51.412;6.724;2024-01-30T08:55:18;13.70;;;8.00;;
9836;SDS011;4957;51.412;6.724;2024-01-30T08:57:44;16.30;;;8.67;;
9836;SDS011;4957;51.412;6.724;2024-01-30T09:00:09;9.73;;;6.97;;
9836;SDS011;4957;51.412;6.724;2024-01-30T09:02:36;12.63;;;7.47;;
9836;SDS011;4957;51.412;6.724;2024-01-30T09:05:02;13.07;;;7.33;;
9836;SDS011;4957;51.412;6.724;2024-01-30T09:07:28;10.40;;;7.13;;
9836;SDS011;4957;51.412;6.724;2024-01-30T09:09:53;12.70;;;7.63;;
9836;SDS011;4957;51.412;6.724;2024-01-30T09:12:19;13.37;;;7.57;;
9836;SDS011;4957;51.412;6.724;2024-01-30T09:14:45;12.77;;;7.60;;
9836;SDS011;4957;51.412;6.724;2024-01-30T09:17:11;13.27;;;7.50;;
9836;SDS011;4957;51.412;6.724;2024-01-30T09:19:37;11.67;;;7.20;;
9836;SDS011;4957;51.412;6.724;2024-01-30T09:22:03;10.67;;;6.87;;
9836;SDS011;4957;51.412;6.724;2024-01-30T09:24:29;15.83;;;7.63;;
9836;SDS011;4957;51.412;6.724;2024-01-30T09:26:54;14.10;;;7.67;;
9836;SDS011;4957;51.412;6.724;2024-01-30T09:29:20;15.33;;;7.80;;
9836;SDS011;4957;51.412;6.724;2024-01-30T09:31:46;12.90;;;7.50;;
9836;SDS011;4957;51.412;6.724;2024-01-30T09:34:12;11.47;;;6.47;;
9836;SDS011;4957;51.412;6.724;2024-01-30T09:36:39;11.33;;;7.00;;
9836;SDS011;4957;51.412;6.724;2024-01-30T09:39:04;14.47;;;6.90;;
9836;SDS011;4957;51.412;6.724;2024-01-30T09:41:41;12.93;;;7.30;;
9836;SDS011;4957;51.412;6.724;2024-01-30T09:44:13;15.63;;;7.10;;
9836;SDS011;4957;51.412;6.724;2024-01-30T09:46:41;11.60;;;7.37;;
9836;SDS011;4957;51.412;6.724;2024-01-30T09:49:08;15.97;;;8.20;;
9836;SDS011;4957;51.412;6.724;2024-01-30T09:51:35;9.47;;;6.97;;
9836;SDS011;4957;51.412;6.724;2024-01-30T09:54:01;10.80;;;7.63;;
9836;SDS011;4957;51.412;6.724;2024-01-30T09:56:28;11.90;;;6.80;;
9836;SDS011;4957;51.412;6.724;2024-01-30T09:58:54;13.07;;;7.23;;
9836;SDS011;4957;51.412;6.724;2024-01-30T10:01:20;9.87;;;7.00;;
9836;SDS011;4957;51.412;6.724;2024-01-30T10:03:46;11.40;;;6.90;;
9836;SDS011;4957;51.412;6.724;2024-01-30T10:06:13;18.03;;;11.00;;
9836;SDS011;4957;51.412;6.724;2024-01-30T10:08:41;11.33;;;6.70;;
9836;SDS011;4957;51.412;6.724;2024-01-30T10:11:07;11.10;;;6.57;;
9836;SDS011;4957;51.412;6.724;2024-01-30T10:13:34;12.67;;;7.47;;
9836;SDS011;4957;51.412;6.724;2024-01-30T10:15:59;11.43;;;7.07;;
9836;SDS011;4957;51.412;6.724;2024-01-30T10:18:28;10.30;;;6.67;;
9836;SDS011;4957;51.412;6.724;2024-01-30T10:20:54;13.33;;;7.23;;
9836;SDS011;4957;51.412;6.724;2024-01-30T10:23:19;16.53;;;7.40;;
9836;SDS011;4957;51.412;6.724;2024-01-30T10:25:45;12.63;;;7.53;;
9836;SDS011;4957;51.412;6.724;2024-01-30T10:28:11;14.83;;;8.10;;
9836;SDS011;4957;51.412;6.724;2024-01-30T10:30:38;13.37;;;7.33;;
9836;SDS011;4957;51.412;6.724;2024-01-30T10:33:03;12.13;;;7.00;;
9836;SDS011;4957;51.412;6.724;2024-01-30T10:35:30;12.17;;;7.80;;
9836;SDS011;4957;51.412;6.724;2024-01-30T10:37:56;12.70;;;7.07;;
9836;SDS011;4957;51.412;6.724;2024-01-30T10:40:28;14.03;;;7.90;;
9836;SDS011;4957;51.412;6.724;2024-01-30T10:42:55;17.20;;;8.00;;
9836;SDS011;4957;51.412;6.724;2024-01-30T10:45:21;13.47;;;7.60;;
9836;SDS011;4957;51.412;6.724;2024-01-30T10:47:49;15.63;;;7.20;;
9836;SDS011;4957;51.412;6.724;2024-01-30T10:50:16;14.03;;;7.60;;
9836;SDS011;4957;51.412;6.724;2024-01-30T10:52:42;14.97;;;8.17;;
9836;SDS011;4957;51.412;6.724;2024-01-30T10:55:08;17.70;;;8.23;;
9836;SDS011;4957;51.412;6.724;2024-01-30T10:57:35;21.50;;;8.50;;
9836;SDS011;4957;51.412;6.724;2024-01-30T11:00:02;13.90;;;7.97;;
9836;SDS011;4957;51.412;6.724;2024-01-30T11:02:30;15.10;;;7.93;;
9836;SDS011;4957;51.412;6.724;2024-01-30T11:04:58;22.17;;;10.67;;
9836;SDS011;4957;51.412;6.724;2024-01-30T11:07:25;21.27;;;10.87;;
9836;SDS011;4957;51.412;6.724;2024-01-30T11:09:53;18.37;;;10.63;;
9836;SDS011;4957;51.412;6.724;2024-01-30T11:12:28;20.90;;;9.77;;
9836;SDS011;4957;51.412;6.724;2024-01-30T11:22:42;18.20;;;9.43;;
9836;SDS011;4957;51.412;6.724;2024-01-30T11:25:13;15.37;;;8.60;;
9836;SDS011;4957;51.412;6.724;2024-01-30T11:27:40;18.70;;;9.00;;
9836;SDS011;4957;51.412;6.724;2024-01-30T11:30:07;14.10;;;7.70;;
9836;SDS011;4957;51.412;6.724;2024-01-30T11:32:33;18.07;;;8.03;;
9836;SDS011;4957;51.412;6.724;2024-01-30T11:34:59;19.27;;;7.73;;
9836;SDS011;4957;51.412;6.724;2024-01-30T11:37:25;12.83;;;8.43;;
9836;SDS011;4957;51.412;6.724;2024-01-30T11:39:53;14.23;;;7.63;;
9836;SDS011;4957;51.412;6.724;2024-01-30T11:42:19;15.50;;;7.80;;
9836;SDS011;4957;51.412;6.724;2024-01-30T11:44:49;15.67;;;7.83;;
9836;SDS011;4957;51.412;6.724;2024-01-30T11:47:15;14.57;;;7.30;;
9836;SDS011;4957;51.412;6.724;2024-01-30T11:49:41;11.63;;;7.27;;
9836;SDS011;4957;51.412;6.724;2024-01-30T11:52:08;14.43;;;7.43;;
9836;SDS011;4957;51.412;6.724;2024-01-30T11:54:34;15.20;;;7.67;;
9836;SDS011;4957;51.412;6.724;2024-01-30T11:57:00;11.37;;;7.80;;
9836;SDS011;4957;51.412;6.724;2024-01-30T11:59:26;15.70;;;8.00;;
9836;SDS011;4957;51.412;6.724;2024-01-30T12:01:52;13.33;;;7.77;;
9836;SDS011;4957;51.412;6.724;2024-01-30T12:04:18;18.43;;;8.00;;
9836;SDS011;4957;51.412;6.724;2024-01-30T12:06:43;14.60;;;8.07;;
9836;SDS011;4957;51.412;6.724;2024-01-30T12:09:09;15.47;;;7.87;;
9836;SDS011;4957;51.412;6.724;2024-01-30T12:11:47;16.73;;;9.33;;
9836;SDS011;4957;51.412;6.724;2024-01-30T12:14:15;22.83;;;9.97;;
9836;SDS011;4957;51.412;6.724;2024-01-30T12:16:42;15.40;;;9.13;;
9836;SDS011;4957;51.412;6.724;2024-01-30T12:19:07;15.77;;;8.37;;
9836;SDS011;4957;51.412;6.724;2024-01-30T12:21:33;18.73;;;8.60;;
9836;SDS011;4957;51.412;6.724;2024-01-30T12:24:00;14.80;;;8.43;;
9836;SDS011;4957;51.412;6.724;2024-01-30T12:26:26;19.63;;;8.87;;
9836;SDS011;4957;51.412;6.724;2024-01-30T12:28:55;19.80;;;9.33;;
9836;SDS011;4957;51.412;6.724;2024-01-30T12:31:27;18.23;;;8.37;;
9836;SDS011;4957;51.412;6.724;2024-01-30T12:33:53;15.33;;;8.10;;
9836;SDS011;4957;51.412;6.724;2024-01-30T12:36:20;13.97;;;7.50;;
9836;SDS011;4957;51.412;6.724;2024-01-30T12:38:49;13.53;;;8.00;;
9836;SDS011;4957;51.412;6.724;2024-01-30T12:41:15;16.43;;;7.30;;
9836;SDS011;4957;51.412;6.724;2024-01-30T12:43:41;12.27;;;6.87;;
9836;SDS011;4957;51.412;6.724;2024-01-30T12:46:07;9.70;;;7.03;;
9836;SDS011;4957;51.412;6.724;2024-01-30T12:48:33;10.97;;;6.80;;
9836;SDS011;4957;51.412;6.724;2024-01-30T12:50:59;12.53;;;6.77;;
9836;SDS011;4957;51.412;6.724;2024-01-30T12:53:24;19.57;;;7.33;;
9836;SDS011;4957;51.412;6.724;2024-01-30T12:55:50;21.13;;;7.50;;
9836;SDS011;4957;51.412;6.724;2024-01-30T12:58:19;11.60;;;6.73;;
9836;SDS011;4957;51.412;6.724;2024-01-30T13:00:45;13.50;;;7.27;;
9836;SDS011;4957;51.412;6.724;2024-01-30T13:03:12;22.50;;;9.27;;
9836;SDS011;4957;51.412;6.724;2024-01-30T13:05:41;14.03;;;8.30;;
9836;SDS011;4957;51.412;6.724;2024-01-30T13:08:07;16.97;;;9.23;;
9836;SDS011;4957;51.412;6.724;2024-01-30T13:10:33;19.97;;;7.63;;
9836;SDS011;4957;51.412;6.724;2024-01-30T13:12:58;10.93;;;6.53;;
9836;SDS011;4957;51.412;6.724;2024-01-30T13:15:24;15.97;;;6.33;;
9836;SDS011;4957;51.412;6.724;2024-01-30T13:17:50;11.77;;;6.47;;
9836;SDS011;4957;51.412;6.724;2024-01-30T13:20:17;13.27;;;7.20;;
9836;SDS011;4957;51.412;6.724;2024-01-30T13:22:45;11.07;;;6.07;;
9836;SDS011;4957;51.412;6.724;2024-01-30T13:25:12;10.97;;;6.17;;
9836;SDS011;4957;51.412;6.724;2024-01-30T13:27:37;10.07;;;5.90;;
9836;SDS011;4957;51.412;6.724;2024-01-30T13:30:06;9.47;;;5.70;;
9836;SDS011;4957;51.412;6.724;2024-01-30T13:32:34;10.70;;;6.33;;
9836;SDS011;4957;51.412;6.724;2024-01-30T13:35:00;9.93;;;6.70;;
9836;SDS011;4957;51.412;6.724;2024-01-30T13:37:26;9.90;;;6.23;;
9836;SDS011;4957;51.412;6.724;2024-01-30T13:39:51;13.67;;;7.07;;
9836;SDS011;4957;51.412;6.724;2024-01-30T13:42:17;12.30;;;6.10;;
9836;SDS011;4957;51.412;6.724;2024-01-30T13:44:44;13.93;;;6.80;;
9836;SDS011;4957;51.412;6.724;2024-01-30T13:47:10;10.57;;;6.43;;
9836;SDS011;4957;51.412;6.724;2024-01-30T13:49:36;14.93;;;7.20;;
9836;SDS011;4957;51.412;6.724;2024-01-30T13:52:01;10.20;;;6.67;;
9836;SDS011;4957;51.412;6.724;2024-01-30T13:54:28;11.87;;;6.73;;
9836;SDS011;4957;51.412;6.724;2024-01-30T13:56:55;17.20;;;5.97;;
9836;SDS011;4957;51.412;6.724;2024-01-30T13:59:21;14.47;;;6.60;;
9836;SDS011;4957;51.412;6.724;2024-01-30T14:01:49;12.97;;;6.33;;
9836;SDS011;4957;51.412;6.724;2024-01-30T14:04:15;10.90;;;5.97;;
9836;SDS011;4957;51.412;6.724;2024-01-30T14:06:41;10.63;;;6.67;;
9836;SDS011;4957;51.412;6.724;2024-01-30T14:09:06;12.13;;;5.77;;
9836;SDS011;4957;51.412;6.724;2024-01-30T14:11:32;16.17;;;6.43;;
9836;SDS011;4957;51.412;6.724;2024-01-30T14:13:58;11.50;;;5.63;;
9836;SDS011;4957;51.412;6.724;2024-01-30T14:16:24;11.60;;;5.57;;
9836;SDS011;4957;51.412;6.724;2024-01-30T14:18:50;11.00;;;5.67;;
9836;SDS011;4957;51.412;6.724;2024-01-30T14:21:15;10.57;;;5.67;;
9836;SDS011;4957;51.412;6.724;2024-01-30T14:23:41;10.77;;;5.17;;
9836;SDS011;4957;51.412;6.724;2024-01-30T14:26:07;9.07;;;5.63;;
9836;SDS011;4957;51.412;6.724;2024-01-30T14:28:32;11.23;;;6.20;;
9836;SDS011;4957;51.412;6.724;2024-01-30T14:31:01;8.80;;;5.47;;
9836;SDS011;4957;51.412;6.724;2024-01-30T14:33:27;8.93;;;4.93;;
9836;SDS011;4957;51.412;6.724;2024-01-30T14:35:52;7.60;;;5.40;;
9836;SDS011;4957;51.412;6.724;2024-01-30T14:38:18;8.60;;;5.87;;
9836;SDS011;4957;51.412;6.724;2024-01-30T14:40:44;12.77;;;6.00;;
9836;SDS011;4957;51.412;6.724;2024-01-30T14:43:10;10.77;;;5.50;;
9836;SDS011;4957;51.412;6.724;2024-01-30T14:45:35;8.30;;;5.03;;
9836;SDS011;4957;51.412;6.724;2024-01-30T14:48:01;9.87;;;5.13;;
9836;SDS011;4957;51.412;6.724;2024-01-30T14:50:29;9.00;;;4.83;;
9836;SDS011;4957;51.412;6.724;2024-01-30T14:52:54;10.53;;;5.77;;
9836;SDS011;4957;51.412;6.724;2024-01-30T14:55:20;8.33;;;4.40;;
9836;SDS011;4957;51.412;6.724;2024-01-30T14:57:46;11.07;;;4.87;;
9836;SDS011;4957;51.412;6.724;2024-01-30T15:00:12;12.13;;;4.57;;
9836;SDS011;4957;51.412;6.724;2024-01-30T15:02:39;7.63;;;4.30;;
9836;SDS011;4957;51.412;6.724;2024-01-30T15:05:08;12.93;;;5.53;;
9836;SDS011;4957;51.412;6.724;2024-01-30T15:07:36;9.17;;;3.90;;
9836;SDS011;4957;51.412;6.724;2024-01-30T15:10:02;5.50;;;3.63;;
9836;SDS011;4957;51.412;6.724;2024-01-30T15:12:28;5.53;;;3.37;;